Time;durP1;ratioP1;P1;durP2;ratioP2;P2;SDS_P1;SDS_P2;PMS_P1;PMS_P2;Temp;Humidity;BMP_temperature;BMP_pressure;BME280_temperature;BME280_humidity;BME280_pressure;Samples;Min_cycle;Max_cycle;Signal;HPM_P1;HPM_P2
2023/05/02 00:02:17;;;;;;;11.45;4.32;;;9.90;99.90;;;;;;4855930;29;20560;-92
2023/05/02 00:04:42;;;;;;;11.35;4.38;;;10.10;99.90;;;;;;4841736;29;20989;-92
2023/05/02 00:07:08;;;;;;;8.48;3.53;;;9.70;99.90;;;;;;4840403;29;20431;-90
2023/05/02 00:09:34;;;;;;;11.90;3.90;;;9.70;99.90;;;;;;4843653;29;20420;-92
2023/05/02 00:11:59;;;;;;;12.48;3.83;;;9.70;99.90;;;;;;4844395;29;20501;-91
2023/05/02 00:14:25;;;;;;;10.40;3.83;;;9.70;99.90;;;;;;4844587;29;20424;-92
2023/05/02 00:16:51;;;;;;;8.50;3.93;;;9.70;99.90;;;;;;4844559;29;20415;-92
2023/05/02 00:19:16;;;;;;;11.52;3.78;;;9.80;99.90;;;;;;4859413;29;20420;-90
2023/05/02 00:21:42;;;;;;;9.70;3.70;;;9.60;99.90;;;;;;4845164;29;20507;-91
2023/05/02 00:24:07;;;;;;;10.40;3.40;;;9.60;99.90;;;;;;4843921;29;21300;-90
2023/05/02 00:26:33;;;;;;;8.63;3.92;;;9.60;99.90;;;;;;4860557;29;20953;-90
2023/05/02 00:29:00;;;;;;;9.23;3.50;;;9.20;99.90;;;;;;4843544;29;20479;-91
2023/05/02 00:31:25;;;;;;;8.80;3.60;;;9.60;99.90;;;;;;4859815;29;20417;-92
2023/05/02 00:33:51;;;;;;;8.63;3.67;;;9.30;99.90;;;;;;4859495;29;20432;-90
2023/05/02 00:36:18;;;;;;;11.93;4.00;;;9.30;99.90;;;;;;4843914;29;20946;-91
2023/05/02 00:38:44;;;;;;;9.82;3.50;;;9.30;99.90;;;;;;4844359;29;20417;-90
2023/05/02 00:41:10;;;;;;;8.02;3.90;;;9.30;99.90;;;;;;4843408;29;20443;-90
2023/05/02 00:43:38;;;;;;;9.75;4.00;;;9.30;99.90;;;;;;4844778;29;20432;-90
2023/05/02 00:46:05;;;;;;;10.05;4.25;;;9.30;99.90;;;;;;4843664;29;20429;-90
2023/05/02 00:48:31;;;;;;;8.88;4.57;;;9.40;99.90;;;;;;4844210;29;20420;-91
2023/05/02 00:50:57;;;;;;;8.88;3.88;;;9.40;99.90;;;;;;4843562;29;20421;-91
2023/05/02 00:53:23;;;;;;;11.50;4.00;;;9.50;99.90;;;;;;4843796;29;20992;-91
2023/05/02 00:55:49;;;;;;;8.57;4.00;;;9.50;99.90;;;;;;4843857;29;21282;-91
2023/05/02 00:58:17;;;;;;;9.80;3.90;;;9.40;99.90;;;;;;4843425;29;20435;-93
2023/05/02 01:01:02;;;;;;;10.35;4.55;;;9.50;99.90;;;;;;4844375;29;20764;-92
2023/05/02 01:03:49;;;;;;;9.48;3.90;;;9.60;99.90;;;;;;4842881;29;21132;-92
2023/05/02 01:06:30;;;;;;;18.23;5.38;;;9.60;99.90;;;;;;4843504;29;20914;-90
2023/05/02 01:09:30;;;;;;;20.73;6.55;;;9.60;99.90;;;;;;4843961;29;20416;-91
2023/05/02 01:12:02;;;;;;;20.70;6.00;;;9.40;99.90;;;;;;4843067;29;20470;-91
2023/05/02 01:14:39;;;;;;;23.25;6.60;;;9.50;99.90;;;;;;4843891;29;20453;-90
2023/05/02 01:17:08;;;;;;;22.83;6.30;;;9.30;99.90;;;;;;4843590;29;20429;-91
2023/05/02 01:19:42;;;;;;;21.70;5.20;;;9.40;99.90;;;;;;4842672;29;20428;-91
2023/05/02 01:22:10;;;;;;;19.50;5.13;;;9.10;99.90;;;;;;4843510;29;20791;-92
2023/05/02 01:24:59;;;;;;;20.98;5.07;;;9.10;99.90;;;;;;4842523;29;20405;-91
2023/05/02 01:27:42;;;;;;;17.73;4.83;;;9.10;99.90;;;;;;4832368;29;20453;-92
2023/05/02 01:30:10;;;;;;;19.65;5.05;;;9.00;99.90;;;;;;4843483;29;20480;-92
2023/05/02 01:32:38;;;;;;;19.90;4.47;;;9.00;99.90;;;;;;4858159;29;20527;-91
2023/05/02 01:35:06;;;;;;;19.30;3.90;;;8.90;99.90;;;;;;4843929;29;20420;-92
2023/05/02 01:37:33;;;;;;;19.48;4.15;;;9.00;99.90;;;;;;4842630;29;20435;-91
2023/05/02 01:40:01;;;;;;;16.90;3.67;;;9.00;99.90;;;;;;4843550;29;20419;-92
2023/05/02 01:42:28;;;;;;;21.05;4.05;;;8.90;99.90;;;;;;4842627;29;20448;-91
2023/05/02 01:44:55;;;;;;;22.80;4.72;;;8.90;99.90;;;;;;4843286;29;20468;-90
2023/05/02 01:47:23;;;;;;;22.58;4.80;;;8.90;99.90;;;;;;4843048;29;20420;-92
2023/05/02 01:49:49;;;;;;;20.88;5.03;;;8.90;99.90;;;;;;4842720;29;20431;-91
2023/05/02 01:52:16;;;;;;;24.50;5.40;;;8.80;99.90;;;;;;4843296;29;20509;-90
2023/05/02 01:54:42;;;;;;;21.42;4.70;;;8.80;99.90;;;;;;4842338;29;20422;-92
2023/05/02 01:57:10;;;;;;;21.55;5.57;;;8.80;99.90;;;;;;4859518;29;20831;-92
2023/05/02 01:59:37;;;;;;;20.63;4.95;;;8.80;99.90;;;;;;4842149;29;20451;-91
2023/05/02 02:02:05;;;;;;;23.83;5.10;;;8.70;99.90;;;;;;4858256;29;20432;-91
2023/05/02 02:04:33;;;;;;;22.95;5.03;;;8.70;99.90;;;;;;4842375;29;20427;-91
2023/05/02 02:07:07;;;;;;;22.02;5.03;;;8.70;99.90;;;;;;4842906;29;20785;-91
2023/05/02 02:09:33;;;;;;;24.42;5.35;;;8.60;99.90;;;;;;4843045;29;20432;-91
2023/05/02 02:12:06;;;;;;;22.73;5.38;;;8.60;99.90;;;;;;4841720;29;20476;-89
2023/05/02 02:14:41;;;;;;;18.03;4.90;;;8.50;99.90;;;;;;4843334;29;20906;-92
2023/05/02 02:17:38;;;;;;;20.98;4.32;;;8.50;99.90;;;;;;4841692;29;20428;-90
2023/05/02 02:20:07;;;;;;;20.17;4.22;;;8.40;99.90;;;;;;4843238;29;20433;-90
2023/05/02 02:22:36;;;;;;;17.50;3.85;;;8.40;99.90;;;;;;4843110;29;20538;-90
2023/05/02 02:25:05;;;;;;;22.40;4.43;;;8.40;99.90;;;;;;4841648;29;20427;-89
2023/05/02 02:27:31;;;;;;;17.85;4.30;;;8.30;99.90;;;;;;4842961;29;20408;-91
2023/05/02 02:29:56;;;;;;;18.98;4.53;;;8.20;99.90;;;;;;4841859;29;20885;-90
2023/05/02 02:32:23;;;;;;;17.53;4.13;;;8.30;99.90;;;;;;4841806;29;20980;-90
2023/05/02 02:34:49;;;;;;;16.13;3.55;;;8.20;99.90;;;;;;4857306;29;20941;-89
2023/05/02 02:37:18;;;;;;;16.25;3.55;;;8.20;99.90;;;;;;4841949;29;20427;-89
2023/05/02 02:40:08;;;;;;;14.38;3.60;;;8.20;99.90;;;;;;4842249;29;20417;-93
2023/05/02 02:42:51;;;;;;;15.48;3.75;;;8.20;99.90;;;;;;4841690;29;20558;-90
2023/05/02 02:45:38;;;;;;;13.88;3.30;;;8.20;99.90;;;;;;4842462;29;20516;-90
2023/05/02 02:48:26;;;;;;;16.75;3.45;;;8.20;99.90;;;;;;4857326;29;20500;-90
2023/05/02 02:51:13;;;;;;;15.17;3.37;;;8.20;99.90;;;;;;4840790;29;20512;-91
2023/05/02 02:53:48;;;;;;;15.43;3.30;;;8.10;99.90;;;;;;4857767;29;20441;-90
2023/05/02 02:56:18;;;;;;;18.98;4.18;;;8.10;99.90;;;;;;4840755;29;20417;-91
2023/05/02 02:59:03;;;;;;;17.85;3.55;;;8.10;99.90;;;;;;4841274;29;20425;-89
2023/05/02 03:01:31;;;;;;;13.93;3.28;;;8.10;99.90;;;;;;4856591;29;20475;-91
2023/05/02 03:03:57;;;;;;;13.02;3.05;;;8.00;99.90;;;;;;4840466;29;20425;-90
2023/05/02 03:06:23;;;;;;;16.88;4.07;;;8.00;99.90;;;;;;4841626;29;20421;-91
2023/05/02 03:08:49;;;;;;;14.73;3.17;;;8.00;99.90;;;;;;4840657;29;20463;-92
2023/05/02 03:11:15;;;;;;;17.13;2.78;;;8.00;99.90;;;;;;4842022;29;21216;-92
2023/05/02 03:13:41;;;;;;;11.93;3.15;;;7.90;99.90;;;;;;4841004;29;20449;-91
2023/05/02 03:16:29;;;;;;;14.10;2.78;;;7.90;99.90;;;;;;4841251;29;20547;-91
2023/05/02 03:18:55;;;;;;;13.73;2.67;;;7.90;99.90;;;;;;4842002;29;20433;-91
2023/05/02 03:21:20;;;;;;;14.63;2.80;;;7.90;99.90;;;;;;4840987;29;20986;-91
2023/05/02 03:23:46;;;;;;;15.13;2.67;;;7.90;99.90;;;;;;4842236;29;20472;-90
2023/05/02 03:26:12;;;;;;;11.45;2.05;;;8.10;99.90;;;;;;4840733;29;20420;-91
2023/05/02 03:28:38;;;;;;;12.77;2.55;;;7.90;99.90;;;;;;4857034;29;20428;-91
2023/05/02 03:31:03;;;;;;;12.65;2.83;;;7.80;99.90;;;;;;4841293;29;20428;-90
2023/05/02 03:33:29;;;;;;;11.27;2.13;;;7.80;99.90;;;;;;4841149;29;20531;-92
2023/05/02 03:35:54;;;;;;;9.55;1.85;;;7.80;99.90;;;;;;4826482;29;20604;-89
2023/05/02 03:38:20;;;;;;;12.30;2.60;;;7.80;99.90;;;;;;4840647;29;20420;-91
2023/05/02 03:40:46;;;;;;;13.10;2.07;;;8.00;99.90;;;;;;4842040;29;20467;-91
2023/05/02 03:43:12;;;;;;;12.13;1.73;;;7.80;99.90;;;;;;4840398;29;20428;-91
2023/05/02 03:45:37;;;;;;;9.80;1.60;;;7.80;99.90;;;;;;4841630;29;20479;-90
2023/05/02 03:48:03;;;;;;;10.17;1.77;;;7.70;99.90;;;;;;4840956;29;20439;-91
2023/05/02 03:50:28;;;;;;;9.20;1.90;;;7.70;99.90;;;;;;4841560;29;20428;-90
2023/05/02 03:52:54;;;;;;;10.60;1.45;;;7.70;99.90;;;;;;4840643;29;20957;-90
2023/05/02 03:55:20;;;;;;;10.03;1.23;;;7.80;99.90;;;;;;4840903;29;20504;-91
2023/05/02 03:57:46;;;;;;;9.57;1.50;;;7.90;99.90;;;;;;4856995;29;20444;-91
2023/05/02 04:00:11;;;;;;;8.68;1.23;;;7.70;99.90;;;;;;4856204;29;20504;-92
2023/05/02 04:02:37;;;;;;;5.65;1.20;;;7.70;99.90;;;;;;4856703;29;20412;-91
2023/05/02 04:05:03;;;;;;;7.00;0.90;;;7.70;99.90;;;;;;4840172;29;20495;-89
2023/05/02 04:07:28;;;;;;;6.23;0.90;;;7.70;99.90;;;;;;4857155;29;20424;-91
2023/05/02 04:09:54;;;;;;;7.75;1.33;;;7.60;99.90;;;;;;4840676;29;20425;-91
2023/05/02 04:12:20;;;;;;;8.53;1.20;;;7.60;99.90;;;;;;4856159;29;20424;-90
2023/05/02 04:14:45;;;;;;;7.20;1.30;;;7.60;99.90;;;;;;4841465;29;20433;-90
2023/05/02 04:17:12;;;;;;;6.43;1.20;;;7.50;99.90;;;;;;4840579;29;20429;-90
2023/05/02 04:19:38;;;;;;;8.33;1.30;;;7.50;99.90;;;;;;4841590;29;20527;-91
2023/05/02 04:22:03;;;;;;;8.80;1.13;;;7.50;99.90;;;;;;4840455;29;20440;-90
2023/05/02 04:24:29;;;;;;;7.47;1.00;;;7.50;99.90;;;;;;4841384;29;20420;-92
2023/05/02 04:26:54;;;;;;;5.03;0.97;;;7.80;99.90;;;;;;4840402;29;20432;-90
2023/05/02 04:29:20;;;;;;;6.00;1.00;;;7.40;99.90;;;;;;4841330;29;20947;-91
2023/05/02 04:31:46;;;;;;;8.70;0.97;;;7.40;99.90;;;;;;4840736;29;20448;-90
2023/05/02 04:34:11;;;;;;;6.27;0.80;;;7.50;99.90;;;;;;4840850;29;20447;-91
2023/05/02 04:36:37;;;;;;;4.70;0.70;;;7.50;99.90;;;;;;4840551;29;20546;-91
2023/05/02 04:39:06;;;;;;;9.45;1.45;;;7.50;99.90;;;;;;4857534;29;20421;-92
2023/05/02 04:41:32;;;;;;;7.17;1.00;;;7.50;99.90;;;;;;4859971;29;20425;-91
2023/05/02 04:43:57;;;;;;;6.80;1.00;;;7.70;99.90;;;;;;4839991;29;20904;-91
2023/05/02 04:46:23;;;;;;;6.53;1.17;;;7.50;99.90;;;;;;4855604;29;20500;-92
2023/05/02 04:48:49;;;;;;;7.65;1.08;;;7.50;99.90;;;;;;4847780;29;20441;-92
2023/05/02 04:51:15;;;;;;;10.40;1.65;;;7.50;99.90;;;;;;4855247;29;20942;-91
2023/05/02 04:53:40;;;;;;;9.47;1.40;;;7.50;99.90;;;;;;4840788;29;20452;-91
2023/05/02 04:56:06;;;;;;;7.95;1.58;;;7.50;99.90;;;;;;4842255;29;20439;-91
2023/05/02 04:58:34;;;;;;;7.57;1.45;;;7.50;99.90;;;;;;4844615;29;20755;-90
2023/05/02 05:01:00;;;;;;;7.55;1.45;;;7.50;99.90;;;;;;4843424;29;20429;-90
2023/05/02 05:03:28;;;;;;;9.63;1.23;;;7.50;99.90;;;;;;4843742;29;20477;-91
2023/05/02 05:05:54;;;;;;;10.13;1.30;;;7.50;99.90;;;;;;4843479;29;20421;-92
2023/05/02 05:08:20;;;;;;;7.05;1.20;;;7.50;99.90;;;;;;4844133;29;20815;-90
2023/05/02 05:10:45;;;;;;;8.47;1.83;;;7.50;99.90;;;;;;4843159;29;20500;-89
2023/05/02 05:13:12;;;;;;;8.27;1.97;;;7.50;99.90;;;;;;4843121;29;20447;-91
2023/05/02 05:15:39;;;;;;;8.02;2.00;;;7.50;99.90;;;;;;4844421;29;20419;-91
2023/05/02 05:18:05;;;;;;;9.77;1.80;;;7.50;99.90;;;;;;4857676;29;20421;-91
2023/05/02 05:20:32;;;;;;;6.43;1.20;;;7.50;99.90;;;;;;4843902;29;20425;-91
2023/05/02 05:22:58;;;;;;;7.30;1.38;;;7.70;98.50;;;;;;4858013;29;20480;-92
2023/05/02 05:25:26;;;;;;;10.40;1.60;;;7.60;98.50;;;;;;4859389;29;20952;-90
2023/05/02 05:27:52;;;;;;;7.95;1.65;;;7.60;98.60;;;;;;4843310;29;20432;-90
2023/05/02 05:30:17;;;;;;;7.60;1.65;;;7.70;99.60;;;;;;4843674;29;20432;-90
2023/05/02 05:32:43;;;;;;;7.90;1.40;;;7.90;95.20;;;;;;4849033;29;20442;-90
2023/05/02 05:35:09;;;;;;;8.60;1.30;;;7.70;97.50;;;;;;4823845;29;20418;-92
2023/05/02 05:37:38;;;;;;;7.25;1.20;;;7.70;96.00;;;;;;4825616;29;20757;-91
2023/05/02 05:40:06;;;;;;;8.10;1.63;;;8.10;95.40;;;;;;4839957;29;20418;-91
2023/05/02 05:42:31;;;;;;;8.63;1.30;;;7.80;96.00;;;;;;4830067;29;20435;-90
2023/05/02 05:44:57;;;;;;;10.47;1.73;;;8.00;92.20;;;;;;4858151;29;20500;-93
2023/05/02 05:47:23;;;;;;;8.55;1.50;;;7.80;95.70;;;;;;4843568;29;20914;-90
2023/05/02 05:49:55;;;;;;;8.88;1.60;;;7.90;96.80;;;;;;4858494;29;20938;-90
2023/05/02 05:52:21;;;;;;;6.45;1.67;;;7.90;93.80;;;;;;4842222;29;20500;-90
2023/05/02 05:54:47;;;;;;;8.70;1.67;;;7.90;96.60;;;;;;4843451;29;20452;-89
2023/05/02 05:57:13;;;;;;;9.40;1.37;;;7.90;99.40;;;;;;4842183;29;20456;-90
2023/05/02 05:59:38;;;;;;;8.73;1.73;;;8.00;98.60;;;;;;4843468;29;20432;-90
2023/05/02 06:02:04;;;;;;;8.93;1.67;;;8.00;96.20;;;;;;4842453;29;20452;-90
2023/05/02 06:04:30;;;;;;;11.77;2.03;;;8.10;95.40;;;;;;4858482;29;20504;-89
2023/05/02 06:06:56;;;;;;;8.32;1.77;;;8.10;98.30;;;;;;4841294;29;20428;-89
2023/05/02 06:09:21;;;;;;;9.20;2.10;;;8.10;98.90;;;;;;4842371;29;20427;-90
2023/05/02 06:11:47;;;;;;;7.77;1.67;;;8.10;99.90;;;;;;4842584;29;20473;-90
2023/05/02 06:14:13;;;;;;;11.13;1.80;;;8.20;99.90;;;;;;4841895;29;20559;-90
2023/05/02 06:16:38;;;;;;;9.95;1.80;;;8.20;99.90;;;;;;4858447;29;20427;-90
2023/05/02 06:19:04;;;;;;;10.67;2.10;;;8.20;99.90;;;;;;4841798;29;20428;-90
2023/05/02 06:21:30;;;;;;;9.13;1.90;;;8.20;99.90;;;;;;4838372;29;20409;-90
2023/05/02 06:23:55;;;;;;;9.50;1.88;;;8.20;99.90;;;;;;4853724;29;20914;-90
2023/05/02 06:26:21;;;;;;;10.00;2.27;;;8.20;97.70;;;;;;4851630;29;20412;-89
2023/05/02 06:28:47;;;;;;;11.07;1.80;;;8.20;98.70;;;;;;4860560;29;20411;-88
2023/05/02 06:31:12;;;;;;;14.38;2.63;;;8.20;99.90;;;;;;4860314;29;20522;-88
2023/05/02 06:33:38;;;;;;;11.33;1.97;;;8.20;98.30;;;;;;4861029;29;20450;-90
2023/05/02 06:36:03;;;;;;;9.70;2.20;;;8.20;98.20;;;;;;4875413;29;21004;-88
2023/05/02 06:38:29;;;;;;;8.80;1.80;;;8.30;99.90;;;;;;4876582;29;20617;-90
2023/05/02 06:40:55;;;;;;;9.05;1.70;;;8.30;99.90;;;;;;4859961;29;20836;-90
2023/05/02 06:43:20;;;;;;;11.23;1.95;;;8.30;99.90;;;;;;4876372;29;20529;-90
2023/05/02 06:45:46;;;;;;;9.87;1.97;;;8.40;99.40;;;;;;4860121;29;20419;-90
2023/05/02 06:48:12;;;;;;;8.57;2.30;;;8.40;97.80;;;;;;4860545;29;20926;-90
2023/05/02 06:50:37;;;;;;;10.45;2.25;;;8.40;98.30;;;;;;4876011;29;20415;-91
2023/05/02 06:53:04;;;;;;;6.63;1.50;;;8.30;99.90;;;;;;4859442;29;20447;-91
2023/05/02 06:55:30;;;;;;;10.60;1.95;;;8.50;90.50;;;;;;4876142;29;20614;-90
2023/05/02 06:57:56;;;;;;;8.88;1.90;;;8.40;98.20;;;;;;4859755;29;20510;-91
2023/05/02 07:00:22;;;;;;;10.48;2.10;;;8.50;98.70;;;;;;4861189;29;20983;-92
2023/05/02 07:02:48;;;;;;;7.70;1.50;;;8.60;99.40;;;;;;4859441;29;20916;-91
2023/05/02 07:05:15;;;;;;;10.15;2.13;;;8.80;94.70;;;;;;4860206;29;20458;-92
2023/05/02 07:07:44;;;;;;;6.78;1.40;;;8.80;98.20;;;;;;4875361;29;20427;-90
2023/05/02 07:10:10;;;;;;;10.20;2.03;;;8.70;97.50;;;;;;4875422;29;20475;-90
2023/05/02 07:12:37;;;;;;;12.80;2.00;;;8.70;93.70;;;;;;4876061;29;20446;-91
2023/05/02 07:15:04;;;;;;;7.53;1.48;;;8.70;87.10;;;;;;4859302;29;20465;-90
2023/05/02 07:17:30;;;;;;;8.07;1.90;;;8.80;87.50;;;;;;4860262;29;20486;-91
2023/05/02 07:19:56;;;;;;;10.63;1.77;;;8.80;86.50;;;;;;4859553;29;20545;-91
2023/05/02 07:22:22;;;;;;;7.50;1.45;;;8.80;90.80;;;;;;4876362;29;20441;-91
2023/05/02 07:24:48;;;;;;;9.68;1.92;;;8.80;82.90;;;;;;4841113;29;20423;-89
2023/05/02 07:27:13;;;;;;;7.40;1.67;;;8.80;90.50;;;;;;4856715;29;20421;-91
2023/05/02 07:29:41;;;;;;;7.10;1.50;;;8.90;85.30;;;;;;4856879;29;20421;-90
2023/05/02 07:32:07;;;;;;;7.28;1.23;;;8.80;80.70;;;;;;4856327;29;20794;-90
2023/05/02 07:34:32;;;;;;;9.03;1.50;;;8.90;76.60;;;;;;4842080;29;20436;-91
2023/05/02 07:36:58;;;;;;;6.00;1.23;;;9.00;74.30;;;;;;4840762;29;20463;-91
2023/05/02 07:39:24;;;;;;;8.43;1.67;;;9.30;86.50;;;;;;4842201;29;20428;-91
2023/05/02 07:41:51;;;;;;;9.15;2.10;;;9.10;77.70;;;;;;4856217;29;20424;-89
2023/05/02 07:44:17;;;;;;;7.05;1.38;;;9.20;86.40;;;;;;4841773;29;21069;-91
2023/05/02 07:46:43;;;;;;;6.95;1.50;;;9.50;73.70;;;;;;4841575;29;20428;-90
2023/05/02 07:49:08;;;;;;;6.30;1.40;;;9.80;82.50;;;;;;4840797;29;20957;-90
2023/05/02 07:51:34;;;;;;;6.97;1.42;;;9.70;78.10;;;;;;4841316;29;20500;-91
2023/05/02 07:54:00;;;;;;;6.22;1.23;;;9.80;72.30;;;;;;4855587;29;20448;-89
2023/05/02 07:56:27;;;;;;;7.75;1.50;;;9.80;73.30;;;;;;4841801;29;20468;-90
2023/05/02 07:58:52;;;;;;;6.55;1.33;;;9.90;72.30;;;;;;4840679;29;20464;-90
2023/05/02 08:01:18;;;;;;;7.28;1.17;;;10.00;78.10;;;;;;4841631;29;20826;-92
2023/05/02 08:03:44;;;;;;;6.20;1.02;;;10.10;70.60;;;;;;4840174;29;20420;-90
2023/05/02 08:06:11;;;;;;;7.03;0.98;;;10.10;64.80;;;;;;4841378;29;20544;-92
2023/05/02 08:08:37;;;;;;;5.03;0.80;;;10.10;65.70;;;;;;4856837;29;20838;-91
2023/05/02 08:11:03;;;;;;;5.60;1.10;;;10.00;62.20;;;;;;4840621;29;20408;-92
2023/05/02 08:13:29;;;;;;;5.93;1.33;;;9.80;63.80;;;;;;4841614;29;20441;-92
2023/05/02 08:15:56;;;;;;;8.03;1.30;;;9.80;65.10;;;;;;4840439;29;20412;-90
2023/05/02 08:18:26;;;;;;;5.10;0.73;;;9.80;63.60;;;;;;4841457;29;20416;-91
2023/05/02 08:20:53;;;;;;;5.53;1.10;;;9.90;67.00;;;;;;4840390;29;20450;-90
2023/05/02 08:23:18;;;;;;;5.55;0.95;;;10.00;68.20;;;;;;4840894;29;20416;-92
2023/05/02 08:25:44;;;;;;;5.70;1.00;;;10.10;67.30;;;;;;4856177;29;21316;-90
2023/05/02 08:28:10;;;;;;;4.87;0.70;;;10.10;65.10;;;;;;4855568;29;20685;-91
2023/05/02 08:30:36;;;;;;;5.27;0.50;;;10.10;63.90;;;;;;4843952;29;20524;-91
2023/05/02 08:33:01;;;;;;;4.07;0.50;;;10.20;61.10;;;;;;4858768;29;21284;-90
2023/05/02 08:35:30;;;;;;;4.20;0.40;;;10.50;60.50;;;;;;4844954;29;20503;-93
2023/05/02 08:37:56;;;;;;;2.33;0.32;;;10.40;61.70;;;;;;4840633;29;20428;-90
2023/05/02 08:40:22;;;;;;;3.60;0.30;;;10.60;63.50;;;;;;4860061;29;20433;-91
2023/05/02 08:42:48;;;;;;;2.67;0.40;;;10.80;64.90;;;;;;4852411;29;20775;-90
2023/05/02 08:45:14;;;;;;;5.05;0.30;;;10.90;63.10;;;;;;4860867;29;20427;-92
2023/05/02 08:47:40;;;;;;;3.60;0.43;;;10.90;60.30;;;;;;4862737;29;20411;-92
2023/05/02 08:50:10;;;;;;;2.85;0.50;;;10.90;61.30;;;;;;4861915;29;20415;-91
2023/05/02 08:52:37;;;;;;;4.57;0.40;;;10.90;59.60;;;;;;4863017;29;20457;-90
2023/05/02 08:55:05;;;;;;;6.20;0.50;;;11.00;62.20;;;;;;4861551;29;20502;-91
2023/05/02 08:57:31;;;;;;;4.53;0.30;;;11.10;64.00;;;;;;4862622;29;20454;-93
2023/05/02 08:59:58;;;;;;;3.93;0.43;;;11.10;62.80;;;;;;4877457;29;20454;-94
2023/05/02 09:02:32;;;;;;;3.55;0.40;;;11.20;59.70;;;;;;4862147;29;20419;-92
2023/05/02 09:05:04;;;;;;;3.78;0.50;;;11.20;61.90;;;;;;4862847;29;20431;-91
2023/05/02 09:07:40;;;;;;;4.47;0.40;;;11.00;58.70;;;;;;4861580;29;20426;-91
2023/05/02 09:10:07;;;;;;;3.65;0.40;;;10.90;58.00;;;;;;4862938;29;20415;-92
2023/05/02 09:12:32;;;;;;;2.58;0.40;;;10.70;60.30;;;;;;4877332;29;20439;-92
2023/05/02 09:15:15;;;;;;;3.93;0.40;;;11.40;60.30;;;;;;4878196;29;20507;-91
2023/05/02 09:17:46;;;;;;;3.35;0.50;;;10.70;64.00;;;;;;4862049;29;20433;-91
2023/05/02 09:20:14;;;;;;;2.58;0.30;;;10.70;64.10;;;;;;4862055;29;20438;-91
2023/05/02 09:22:48;;;;;;;2.28;0.40;;;10.60;62.40;;;;;;4862623;29;20502;-92
2023/05/02 09:25:15;;;;;;;2.80;0.30;;;10.90;61.50;;;;;;4861151;29;20455;-91
2023/05/02 09:27:54;;;;;;;3.85;0.50;;;11.40;61.00;;;;;;4862583;29;20419;-90
2023/05/02 09:30:20;;;;;;;3.45;0.40;;;12.00;66.40;;;;;;4861712;29;20431;-90
2023/05/02 09:32:49;;;;;;;2.67;0.30;;;12.10;59.80;;;;;;4861674;29;20450;-92
2023/05/02 09:35:22;;;;;;;2.42;0.30;;;12.00;56.10;;;;;;4861789;29;20414;-92
2023/05/02 09:37:52;;;;;;;2.77;0.43;;;12.00;60.00;;;;;;4877002;29;20905;-91
2023/05/02 09:40:19;;;;;;;3.10;0.40;;;11.80;59.30;;;;;;4877476;29;20916;-92
2023/05/02 09:42:45;;;;;;;2.95;0.40;;;11.60;58.50;;;;;;4861169;29;20422;-93
2023/05/02 09:45:21;;;;;;;2.60;0.40;;;11.40;62.80;;;;;;4877434;29;20446;-91
2023/05/02 09:47:47;;;;;;;4.32;0.60;;;11.60;63.80;;;;;;4877162;29;20426;-90
2023/05/02 09:50:32;;;;;;;3.67;0.50;;;12.30;65.80;;;;;;4861513;29;20839;-92
2023/05/02 09:53:02;;;;;;;3.92;0.40;;;12.40;61.30;;;;;;4861743;29;20533;-91
2023/05/02 09:55:28;;;;;;;6.50;0.60;;;12.90;60.60;;;;;;4852495;29;20912;-91
2023/05/02 09:57:53;;;;;;;2.92;0.40;;;12.70;59.10;;;;;;4842906;29;20504;-90
2023/05/02 10:00:19;;;;;;;2.60;0.30;;;12.60;60.10;;;;;;4842595;29;20420;-91
2023/05/02 10:02:49;;;;;;;2.80;0.30;;;12.60;58.60;;;;;;4857968;29;20941;-92
2023/05/02 10:05:16;;;;;;;2.72;0.30;;;12.50;59.90;;;;;;4842677;29;20619;-90
2023/05/02 10:07:43;;;;;;;2.78;0.40;;;12.70;60.40;;;;;;4841985;29;20496;-91
2023/05/02 10:10:15;;;;;;;2.77;0.40;;;13.10;58.40;;;;;;4857726;29;20423;-91
2023/05/02 10:12:41;;;;;;;2.38;0.40;;;13.30;56.90;;;;;;4841813;29;20783;-91
2023/05/02 10:15:12;;;;;;;3.72;0.40;;;13.10;52.90;;;;;;4847045;29;20422;-91
2023/05/02 10:17:47;;;;;;;3.17;0.47;;;12.70;52.40;;;;;;4859649;29;21125;-91
2023/05/02 10:20:21;;;;;;;3.90;0.60;;;12.30;55.60;;;;;;4860458;29;20434;-92
2023/05/02 10:22:49;;;;;;;3.00;0.40;;;12.70;61.50;;;;;;4860323;29;20415;-90
2023/05/02 10:25:15;;;;;;;3.30;0.43;;;13.20;57.70;;;;;;4860104;29;20415;-92
2023/05/02 10:27:41;;;;;;;3.08;0.47;;;13.30;56.80;;;;;;4861310;29;20451;-91
2023/05/02 10:30:08;;;;;;;4.32;0.45;;;13.00;56.90;;;;;;4860135;29;20454;-91
2023/05/02 10:32:35;;;;;;;3.47;0.43;;;12.50;63.60;;;;;;4861341;29;20494;-90
2023/05/02 10:35:04;;;;;;;2.40;0.50;;;12.20;64.80;;;;;;4875815;29;20501;-90
2023/05/02 10:37:34;;;;;;;3.40;0.45;;;12.20;72.70;;;;;;4860614;29;20746;-92
2023/05/02 10:40:00;;;;;;;3.67;0.47;;;12.60;71.80;;;;;;4860880;29;20415;-92
2023/05/02 10:42:27;;;;;;;4.15;0.50;;;13.10;67.30;;;;;;4860089;29;20783;-92
2023/05/02 10:44:53;;;;;;;3.03;0.40;;;12.90;62.90;;;;;;4876898;29;20426;-91
2023/05/02 10:47:25;;;;;;;4.63;0.70;;;12.40;65.00;;;;;;4859862;29;20431;-92
2023/05/02 10:49:59;;;;;;;5.45;0.40;;;12.40;73.20;;;;;;4876065;29;20434;-91
2023/05/02 10:52:30;;;;;;;3.07;0.40;;;12.70;69.80;;;;;;4845383;29;20429;-92
2023/05/02 10:55:20;;;;;;;6.47;0.70;;;12.70;69.90;;;;;;4840593;29;20480;-90
2023/05/02 10:57:57;;;;;;;2.33;0.40;;;12.70;70.90;;;;;;4841366;29;20471;-91
2023/05/02 11:00:33;;;;;;;2.70;0.40;;;12.40;62.00;;;;;;4854937;29;20440;-91
2023/05/02 11:03:00;;;;;;;4.15;0.40;;;12.00;64.20;;;;;;4840228;29;20432;-91
2023/05/02 11:05:26;;;;;;;4.43;0.40;;;11.60;62.40;;;;;;4839060;29;20412;-91
2023/05/02 11:08:31;;;;;;;3.80;0.60;;;11.50;67.00;;;;;;4840452;29;20428;-90
2023/05/02 11:11:17;;;;;;;3.63;0.40;;;11.30;69.40;;;;;;4839935;29;20459;-90
2023/05/02 11:13:50;;;;;;;2.53;0.30;;;11.70;79.10;;;;;;4838742;29;20445;-89
2023/05/02 11:16:16;;;;;;;3.67;0.60;;;12.40;67.50;;;;;;4841017;29;20432;-91
2023/05/02 11:18:59;;;;;;;2.88;0.43;;;13.00;67.70;;;;;;4840231;29;20440;-91
2023/05/02 11:21:31;;;;;;;2.17;0.30;;;13.40;59.80;;;;;;4839695;29;20569;-91
2023/05/02 11:24:35;;;;;;;2.13;0.28;;;13.00;59.30;;;;;;4841213;29;20974;-92
2023/05/02 11:27:32;;;;;;;2.65;0.32;;;12.90;61.50;;;;;;4840309;29;20424;-90
2023/05/02 11:29:59;;;;;;;4.22;0.50;;;12.80;61.20;;;;;;4840483;29;20824;-91
2023/05/02 11:32:48;;;;;;;3.72;0.50;;;12.30;72.30;;;;;;4841027;29;20436;-90
2023/05/02 11:35:20;;;;;;;3.38;0.38;;;11.80;79.70;;;;;;4839664;29;20421;-93
2023/05/02 11:37:56;;;;;;;2.88;0.50;;;11.60;95.60;;;;;;4840734;29;20452;-91
2023/05/02 11:40:23;;;;;;;3.00;0.30;;;11.40;93.40;;;;;;4840147;29;20906;-91
2023/05/02 11:42:48;;;;;;;2.85;0.43;;;11.40;88.30;;;;;;4839884;29;20409;-90
2023/05/02 11:45:14;;;;;;;4.33;0.40;;;11.60;94.30;;;;;;4840232;29;20823;-89
2023/05/02 11:47:41;;;;;;;2.10;0.30;;;11.90;92.10;;;;;;4839263;29;20424;-90
2023/05/02 11:50:10;;;;;;;2.83;0.30;;;12.10;84.30;;;;;;4840737;29;20423;-90
2023/05/02 11:52:38;;;;;;;2.80;0.30;;;12.20;69.60;;;;;;4854770;29;20444;-90
2023/05/02 11:55:10;;;;;;;3.38;0.40;;;12.20;67.20;;;;;;4840989;29;20488;-91
2023/05/02 11:57:36;;;;;;;2.25;0.30;;;12.20;65.40;;;;;;4855301;29;20412;-91
2023/05/02 12:00:03;;;;;;;1.85;0.20;;;11.90;61.90;;;;;;4839797;29;20464;-91
2023/05/02 12:02:40;;;;;;;1.40;0.45;;;11.80;67.20;;;;;;4840712;29;20420;-92
2023/05/02 12:05:10;;;;;;;2.03;0.20;;;11.70;63.80;;;;;;4842765;29;20424;-92
2023/05/02 12:07:40;;;;;;;1.98;0.20;;;11.60;66.60;;;;;;4844570;29;20508;-92
2023/05/02 12:10:07;;;;;;;1.83;0.20;;;11.80;69.70;;;;;;4843399;29;20896;-91
2023/05/02 12:12:34;;;;;;;2.10;0.20;;;11.80;64.70;;;;;;4858950;29;20444;-91
2023/05/02 12:15:08;;;;;;;2.40;0.20;;;11.80;62.10;;;;;;4843409;29;20427;-93
2023/05/02 12:17:37;;;;;;;1.67;0.20;;;11.90;61.90;;;;;;4843885;29;20424;-92
2023/05/02 12:20:05;;;;;;;2.37;0.20;;;11.80;61.00;;;;;;4843913;29;20423;-90
2023/05/02 12:22:31;;;;;;;1.52;0.20;;;11.90;61.10;;;;;;4858054;29;20421;-91
2023/05/02 12:24:57;;;;;;;2.35;0.10;;;12.00;57.90;;;;;;4844318;29;20425;-91
2023/05/02 12:27:23;;;;;;;2.78;0.20;;;11.90;61.80;;;;;;4843090;29;20973;-91
2023/05/02 12:29:48;;;;;;;1.73;0.20;;;12.00;60.90;;;;;;4843714;29;20456;-91
2023/05/02 12:32:25;;;;;;;2.17;0.20;;;12.00;59.10;;;;;;4858529;29;20476;-92
2023/05/02 12:34:51;;;;;;;2.25;0.20;;;12.40;60.10;;;;;;4843078;29;20620;-91
2023/05/02 12:37:24;;;;;;;2.13;0.27;;;12.70;59.60;;;;;;4843382;29;20507;-91
2023/05/02 12:39:52;;;;;;;4.25;0.30;;;13.00;58.70;;;;;;4842390;29;20449;-91
2023/05/02 12:42:19;;;;;;;2.72;0.20;;;13.20;54.80;;;;;;4859441;29;20424;-92
2023/05/02 12:44:46;;;;;;;2.27;0.30;;;12.90;57.30;;;;;;4842911;29;20914;-90
2023/05/02 12:47:15;;;;;;;2.87;0.30;;;12.70;57.60;;;;;;4843598;29;20413;-92
2023/05/02 12:49:51;;;;;;;2.33;0.30;;;12.60;62.90;;;;;;4843281;29;20816;-91
2023/05/02 12:52:40;;;;;;;4.28;0.30;;;12.40;61.00;;;;;;4841907;29;20445;-91
2023/05/02 12:55:35;;;;;;;4.28;0.40;;;12.00;66.20;;;;;;4843170;29;20503;-91
2023/05/02 12:58:08;;;;;;;3.67;0.30;;;11.60;76.00;;;;;;4822418;29;20428;-91
2023/05/02 13:00:36;;;;;;;3.83;0.20;;;11.40;78.00;;;;;;4841536;29;20476;-92